sensor_id;sensor_type;location;lat;lon;timestamp;pressure;altitude;pressure_sealevel;temperature;humidity
54122;BME280;40029;58.708;50.190;2024-02-21T00:00:08;101036.72;;;-7.30;73.85
54122;BME280;40029;58.708;50.190;2024-02-21T00:02:59;101042.31;;;-7.39;73.63
54122;BME280;40029;58.708;50.190;2024-02-21T00:05:32;101041.28;;;-7.43;73.96
54122;BME280;40029;58.708;50.190;2024-02-21T00:08:04;101039.81;;;-7.38;73.57
54122;BME280;40029;58.708;50.190;2024-02-21T00:10:35;101034.91;;;-7.33;73.68
54122;BME280;40029;58.708;50.190;2024-02-21T00:13:07;101033.69;;;-7.40;73.55
54122;BME280;40029;58.708;50.190;2024-02-21T00:15:56;101029.38;;;-7.41;73.80
54122;BME280;40029;58.708;50.190;2024-02-21T00:18:27;101025.28;;;-7.37;73.69
54122;BME280;40029;58.708;50.190;2024-02-21T00:20:58;101031.22;;;-7.38;73.78
54122;BME280;40029;58.708;50.190;2024-02-21T00:23:29;101026.44;;;-7.48;73.67
54122;BME280;40029;58.708;50.190;2024-02-21T00:26:01;101025.84;;;-7.43;74.00
54122;BME280;40029;58.708;50.190;2024-02-21T00:28:32;101027.72;;;-7.57;74.13
54122;BME280;40029;58.708;50.190;2024-02-21T00:31:03;101020.38;;;-7.49;74.42
54122;BME280;40029;58.708;50.190;2024-02-21T00:33:53;101015.25;;;-7.49;73.97
54122;BME280;40029;58.708;50.190;2024-02-21T00:36:24;101013.50;;;-7.50;73.83
54122;BME280;40029;58.708;50.190;2024-02-21T00:39:13;101009.97;;;-7.52;73.97
54122;BME280;40029;58.708;50.190;2024-02-21T00:42:03;101010.75;;;-7.53;74.41
54122;BME280;40029;58.708;50.190;2024-02-21T00:44:35;101011.09;;;-7.47;74.62
54122;BME280;40029;58.708;50.190;2024-02-21T00:47:06;101015.25;;;-7.49;74.13
54122;BME280;40029;58.708;50.190;2024-02-21T00:49:37;101004.56;;;-7.40;74.04
54122;BME280;40029;58.708;50.190;2024-02-21T00:52:08;101015.41;;;-7.46;73.94
54122;BME280;40029;58.708;50.190;2024-02-21T00:54:58;101022.94;;;-7.32;74.17
54122;BME280;40029;58.708;50.190;2024-02-21T00:57:29;101018.22;;;-7.41;73.61
54122;BME280;40029;58.708;50.190;2024-02-21T01:00:01;101010.56;;;-7.40;73.80
54122;BME280;40029;58.708;50.190;2024-02-21T01:02:51;101005.13;;;-7.46;74.18
54122;BME280;40029;58.708;50.190;2024-02-21T01:05:22;101009.78;;;-7.39;74.01
54122;BME280;40029;58.708;50.190;2024-02-21T01:08:12;101009.06;;;-7.52;74.16
54122;BME280;40029;58.708;50.190;2024-02-21T01:10:43;101009.59;;;-7.60;74.51
54122;BME280;40029;58.708;50.190;2024-02-21T01:13:14;101003.22;;;-7.50;74.50
54122;BME280;40029;58.708;50.190;2024-02-21T01:15:45;100996.19;;;-7.54;74.61
54122;BME280;40029;58.708;50.190;2024-02-21T01:18:16;101001.31;;;-7.54;74.70
54122;BME280;40029;58.708;50.190;2024-02-21T01:21:06;100991.09;;;-7.52;74.87
54122;BME280;40029;58.708;50.190;2024-02-21T01:23:38;100992.78;;;-7.53;74.48
54122;BME280;40029;58.708;50.190;2024-02-21T01:26:09;100988.53;;;-7.52;74.45
54122;BME280;40029;58.708;50.190;2024-02-21T01:28:43;100991.75;;;-7.57;74.85
54122;BME280;40029;58.708;50.190;2024-02-21T01:31:14;100990.78;;;-7.59;74.40
54122;BME280;40029;58.708;50.190;2024-02-21T01:33:46;100996.81;;;-7.58;74.30
54122;BME280;40029;58.708;50.190;2024-02-21T01:36:17;100993.59;;;-7.54;74.75
54122;BME280;40029;58.708;50.190;2024-02-21T01:39:07;100996.19;;;-7.54;74.53
54122;BME280;40029;58.708;50.190;2024-02-21T01:41:39;100992.78;;;-7.53;74.69
54122;BME280;40029;58.708;50.190;2024-02-21T01:44:10;100999.84;;;-7.49;74.25
54122;BME280;40029;58.708;50.190;2024-02-21T01:46:41;100996.22;;;-7.52;74.60
54122;BME280;40029;58.708;50.190;2024-02-21T01:49:12;100994.13;;;-7.43;74.37
54122;BME280;40029;58.708;50.190;2024-02-21T01:52:02;100988.84;;;-7.46;74.22
54122;BME280;40029;58.708;50.190;2024-02-21T01:54:34;100988.28;;;-7.41;74.15
54122;BME280;40029;58.708;50.190;2024-02-21T01:57:06;100993.75;;;-7.51;74.31
54122;BME280;40029;58.708;50.190;2024-02-21T01:59:38;100990.22;;;-7.53;74.29
54122;BME280;40029;58.708;50.190;2024-02-21T02:02:09;100992.66;;;-7.56;74.40
54122;BME280;40029;58.708;50.190;2024-02-21T02:05:00;100985.16;;;-7.51;74.30
54122;BME280;40029;58.708;50.190;2024-02-21T02:07:32;100983.81;;;-7.61;74.23
54122;BME280;40029;58.708;50.190;2024-02-21T02:10:04;100973.38;;;-7.64;73.97
54122;BME280;40029;58.708;50.190;2024-02-21T02:12:36;100980.31;;;-7.63;74.24
54122;BME280;40029;58.708;50.190;2024-02-21T02:15:07;100973.56;;;-7.61;74.30
54122;BME280;40029;58.708;50.190;2024-02-21T02:17:39;100976.25;;;-7.58;74.15
54122;BME280;40029;58.708;50.190;2024-02-21T02:20:11;100978.53;;;-7.64;74.36
54122;BME280;40029;58.708;50.190;2024-02-21T02:22:43;100977.06;;;-7.59;74.42
54122;BME280;40029;58.708;50.190;2024-02-21T02:25:17;100971.78;;;-7.62;74.70
54122;BME280;40029;58.708;50.190;2024-02-21T02:28:07;100974.59;;;-7.58;74.28
54122;BME280;40029;58.708;50.190;2024-02-21T02:30:38;100971.78;;;-7.62;74.52
54122;BME280;40029;58.708;50.190;2024-02-21T02:33:10;100973.94;;;-7.70;74.25
54122;BME280;40029;58.708;50.190;2024-02-21T02:35:41;100976.34;;;-7.73;74.36
54122;BME280;40029;58.708;50.190;2024-02-21T02:38:31;100984.41;;;-7.67;74.29
54122;BME280;40029;58.708;50.190;2024-02-21T02:41:20;100976.94;;;-7.79;74.38
54122;BME280;40029;58.708;50.190;2024-02-21T02:43:51;100979.50;;;-7.79;73.98
54122;BME280;40029;58.708;50.190;2024-02-21T02:46:22;100973.31;;;-7.82;73.30
54122;BME280;40029;58.708;50.190;2024-02-21T02:49:12;100974.94;;;-7.84;73.66
54122;BME280;40029;58.708;50.190;2024-02-21T02:51:43;100981.19;;;-7.96;72.63
54122;BME280;40029;58.708;50.190;2024-02-21T02:54:15;100984.59;;;-7.97;72.87
54122;BME280;40029;58.708;50.190;2024-02-21T02:56:46;100982.72;;;-7.99;73.08
54122;BME280;40029;58.708;50.190;2024-02-21T02:59:17;100979.50;;;-7.95;72.86
54122;BME280;40029;58.708;50.190;2024-02-21T03:02:07;100981.75;;;-8.01;72.86
54122;BME280;40029;58.708;50.190;2024-02-21T03:04:39;100985.75;;;-8.06;72.99
54122;BME280;40029;58.708;50.190;2024-02-21T03:07:11;100986.00;;;-8.18;72.33
54122;BME280;40029;58.708;50.190;2024-02-21T03:09:43;100985.19;;;-8.17;72.76
54122;BME280;40029;58.708;50.190;2024-02-21T03:12:14;100986.41;;;-8.27;72.67
54122;BME280;40029;58.708;50.190;2024-02-21T03:14:50;100991.94;;;-8.19;73.12
54122;BME280;40029;58.708;50.190;2024-02-21T03:17:21;100996.84;;;-8.24;72.90
54122;BME280;40029;58.708;50.190;2024-02-21T03:19:53;100987.78;;;-8.33;73.06
54122;BME280;40029;58.708;50.190;2024-02-21T03:22:43;100993.53;;;-8.21;72.94
54122;BME280;40029;58.708;50.190;2024-02-21T03:25:14;100987.84;;;-8.16;72.40
54122;BME280;40029;58.708;50.190;2024-02-21T03:27:46;100984.22;;;-8.19;72.25
54122;BME280;40029;58.708;50.190;2024-02-21T03:30:18;100991.38;;;-8.13;72.24
54122;BME280;40029;58.708;50.190;2024-02-21T03:32:49;100991.22;;;-8.17;72.54
54122;BME280;40029;58.708;50.190;2024-02-21T03:35:20;100988.03;;;-8.12;72.17
54122;BME280;40029;58.708;50.190;2024-02-21T03:38:10;100989.28;;;-8.21;72.25
54122;BME280;40029;58.708;50.190;2024-02-21T03:41:01;100991.22;;;-8.17;72.51
54122;BME280;40029;58.708;50.190;2024-02-21T03:43:32;100996.19;;;-8.20;72.50
54122;BME280;40029;58.708;50.190;2024-02-21T03:46:03;100999.81;;;-8.16;72.69
54122;BME280;40029;58.708;50.190;2024-02-21T03:48:35;101003.41;;;-8.12;72.47
54122;BME280;40029;58.708;50.190;2024-02-21T03:51:07;101010.66;;;-8.05;72.34
54122;BME280;40029;58.708;50.190;2024-02-21T03:53:38;101005.50;;;-8.22;72.16
54122;BME280;40029;58.708;50.190;2024-02-21T03:56:10;101013.38;;;-8.19;72.45
54122;BME280;40029;58.708;50.190;2024-02-21T03:58:41;101010.72;;;-8.20;72.55
54122;BME280;40029;58.708;50.190;2024-02-21T04:01:15;101010.28;;;-8.11;72.13
54122;BME280;40029;58.708;50.190;2024-02-21T04:04:04;101011.34;;;-8.08;72.49
54122;BME280;40029;58.708;50.190;2024-02-21T04:06:36;101016.47;;;-8.08;72.44
54122;BME280;40029;58.708;50.190;2024-02-21T04:09:07;101013.13;;;-8.07;72.52
54122;BME280;40029;58.708;50.190;2024-02-21T04:11:38;101022.03;;;-8.17;72.46
54122;BME280;40029;58.708;50.190;2024-02-21T04:14:09;101014.25;;;-8.18;72.80
54122;BME280;40029;58.708;50.190;2024-02-21T04:17:00;101031.19;;;-8.05;72.89
54122;BME280;40029;58.708;50.190;2024-02-21T04:19:32;101014.16;;;-8.03;72.67
54122;BME280;40029;58.708;50.190;2024-02-21T04:22:04;101017.53;;;-8.04;72.91
54122;BME280;40029;58.708;50.190;2024-02-21T04:24:54;101019.31;;;-8.03;73.03
54122;BME280;40029;58.708;50.190;2024-02-21T04:27:43;101018.81;;;-8.12;72.67
54122;BME280;40029;58.708;50.190;2024-02-21T04:30:15;101026.97;;;-8.20;73.11
54122;BME280;40029;58.708;50.190;2024-02-21T04:33:04;101025.22;;;-8.04;73.02
54122;BME280;40029;58.708;50.190;2024-02-21T04:35:36;101023.97;;;-7.96;73.11
54122;BME280;40029;58.708;50.190;2024-02-21T04:38:07;101024.94;;;-7.94;72.73
54122;BME280;40029;58.708;50.190;2024-02-21T04:40:39;101019.13;;;-8.06;73.07
54122;BME280;40029;58.708;50.190;2024-02-21T04:43:10;101012.38;;;-8.04;73.08
54122;BME280;40029;58.708;50.190;2024-02-21T04:45:41;101026.75;;;-8.08;73.22
54122;BME280;40029;58.708;50.190;2024-02-21T04:48:13;101019.69;;;-7.96;73.58
54122;BME280;40029;58.708;50.190;2024-02-21T04:51:03;101028.28;;;-7.95;73.72
54122;BME280;40029;58.708;50.190;2024-02-21T04:53:34;101026.66;;;-7.93;73.31
54122;BME280;40029;58.708;50.190;2024-02-21T04:56:05;101029.09;;;-7.96;73.66
54122;BME280;40029;58.708;50.190;2024-02-21T04:58:40;101031.66;;;-7.80;73.22
54122;BME280;40029;58.708;50.190;2024-02-21T05:01:11;101030.38;;;-7.71;73.22
54122;BME280;40029;58.708;50.190;2024-02-21T05:03:42;101033.28;;;-7.65;73.11
54122;BME280;40029;58.708;50.190;2024-02-21T05:06:13;101029.41;;;-7.57;72.57
54122;BME280;40029;58.708;50.190;2024-02-21T05:08:44;101040.00;;;-7.67;72.75
54122;BME280;40029;58.708;50.190;2024-02-21T05:11:15;101037.84;;;-7.76;72.86
54122;BME280;40029;58.708;50.190;2024-02-21T05:13:46;101032.63;;;-7.61;72.91
54122;BME280;40029;58.708;50.190;2024-02-21T05:16:18;101029.50;;;-7.55;73.03
54122;BME280;40029;58.708;50.190;2024-02-21T05:18:50;101025.53;;;-7.49;72.63
54122;BME280;40029;58.708;50.190;2024-02-21T05:21:21;101032.94;;;-7.55;72.52
54122;BME280;40029;58.708;50.190;2024-02-21T05:24:10;101034.47;;;-7.59;72.60
54122;BME280;40029;58.708;50.190;2024-02-21T05:26:42;101036.94;;;-7.60;72.79
54122;BME280;40029;58.708;50.190;2024-02-21T05:29:13;101032.94;;;-7.55;72.74
54122;BME280;40029;58.708;50.190;2024-02-21T05:34:22;101036.28;;;-7.40;72.63
54122;BME280;40029;58.708;50.190;2024-02-21T05:36:53;101032.03;;;-7.39;71.98
54122;BME280;40029;58.708;50.190;2024-02-21T05:39:24;101033.53;;;-7.26;71.73
54122;BME280;40029;58.708;50.190;2024-02-21T05:41:56;101025.38;;;-7.35;71.54
54122;BME280;40029;58.708;50.190;2024-02-21T05:44:27;101032.44;;;-7.48;71.10
54122;BME280;40029;58.708;50.190;2024-02-21T05:46:58;101035.41;;;-7.57;71.30
54122;BME280;40029;58.708;50.190;2024-02-21T05:49:29;101034.22;;;-7.47;71.91
54122;BME280;40029;58.708;50.190;2024-02-21T05:52:00;101035.28;;;-7.25;71.54
54122;BME280;40029;58.708;50.190;2024-02-21T05:54:31;101030.81;;;-7.29;71.30
54122;BME280;40029;58.708;50.190;2024-02-21T05:57:03;101036.91;;;-7.27;70.60
54122;BME280;40029;58.708;50.190;2024-02-21T05:59:34;101034.13;;;-7.14;70.60
54122;BME280;40029;58.708;50.190;2024-02-21T06:02:07;101031.06;;;-7.25;70.45
54122;BME280;40029;58.708;50.190;2024-02-21T06:04:38;101040.28;;;-7.28;70.49
54122;BME280;40029;58.708;50.190;2024-02-21T06:07:10;101032.50;;;-7.12;70.38
54122;BME280;40029;58.708;50.190;2024-02-21T06:09:41;101034.41;;;-7.26;70.17
54122;BME280;40029;58.708;50.190;2024-02-21T06:12:12;101035.63;;;-7.19;70.19
54122;BME280;40029;58.708;50.190;2024-02-21T06:14:44;101037.78;;;-7.27;70.53
54122;BME280;40029;58.708;50.190;2024-02-21T06:17:15;101035.16;;;-7.28;70.48
54122;BME280;40029;58.708;50.190;2024-02-21T06:19:47;101030.81;;;-7.29;70.72
54122;BME280;40029;58.708;50.190;2024-02-21T06:22:18;101037.75;;;-7.45;70.27
54122;BME280;40029;58.708;50.190;2024-02-21T06:24:49;101045.75;;;-7.39;70.77
54122;BME280;40029;58.708;50.190;2024-02-21T06:27:20;101040.38;;;-7.43;71.08
54122;BME280;40029;58.708;50.190;2024-02-21T06:29:52;101049.06;;;-7.41;70.72
54122;BME280;40029;58.708;50.190;2024-02-21T06:32:23;101040.06;;;-7.49;70.70
54122;BME280;40029;58.708;50.190;2024-02-21T06:34:54;101042.56;;;-7.51;70.62
54122;BME280;40029;58.708;50.190;2024-02-21T06:37:25;101041.38;;;-7.58;70.48
54122;BME280;40029;58.708;50.190;2024-02-21T06:39:56;101046.81;;;-7.51;70.75
54122;BME280;40029;58.708;50.190;2024-02-21T06:42:46;101048.19;;;-7.58;70.70
54122;BME280;40029;58.708;50.190;2024-02-21T06:45:36;101052.25;;;-7.45;70.73
54122;BME280;40029;58.708;50.190;2024-02-21T06:48:07;101053.63;;;-7.35;70.64
54122;BME280;40029;58.708;50.190;2024-02-21T06:50:39;101052.16;;;-7.30;70.33
54122;BME280;40029;58.708;50.190;2024-02-21T06:53:10;101050.38;;;-7.15;70.09
54122;BME280;40029;58.708;50.190;2024-02-21T06:55:41;101041.81;;;-7.32;69.41
54122;BME280;40029;58.708;50.190;2024-02-21T06:58:12;101048.25;;;-7.06;70.10
54122;BME280;40029;58.708;50.190;2024-02-21T07:00:44;101050.47;;;-7.13;69.34
54122;BME280;40029;58.708;50.190;2024-02-21T07:03:34;101043.94;;;-7.23;69.30
54122;BME280;40029;58.708;50.190;2024-02-21T07:06:05;101048.94;;;-7.10;68.92
54122;BME280;40029;58.708;50.190;2024-02-21T07:08:36;101049.09;;;-6.89;69.29
54122;BME280;40029;58.708;50.190;2024-02-21T07:11:26;101057.47;;;-6.93;69.03
54122;BME280;40029;58.708;50.190;2024-02-21T07:13:57;101051.94;;;-6.83;68.37
54122;BME280;40029;58.708;50.190;2024-02-21T07:16:28;101047.84;;;-6.61;68.50
54122;BME280;40029;58.708;50.190;2024-02-21T07:19:00;101051.94;;;-6.83;68.47
54122;BME280;40029;58.708;50.190;2024-02-21T07:21:31;101053.66;;;-6.83;68.26
54122;BME280;40029;58.708;50.190;2024-02-21T07:24:02;101051.13;;;-7.00;67.64
54122;BME280;40029;58.708;50.190;2024-02-21T07:26:34;101052.03;;;-6.81;68.20
54122;BME280;40029;58.708;50.190;2024-02-21T07:29:05;101046.22;;;-6.95;68.32
54122;BME280;40029;58.708;50.190;2024-02-21T07:31:41;101054.19;;;-7.07;66.96
54122;BME280;40029;58.708;50.190;2024-02-21T07:34:13;101050.16;;;-7.02;68.00
54122;BME280;40029;58.708;50.190;2024-02-21T07:36:45;101057.13;;;-6.99;67.54
54122;BME280;40029;58.708;50.190;2024-02-21T07:39:16;101057.09;;;-7.01;68.10
54122;BME280;40029;58.708;50.190;2024-02-21T07:41:48;101056.75;;;-7.07;67.41
54122;BME280;40029;58.708;50.190;2024-02-21T07:44:20;101057.09;;;-7.01;68.00
54122;BME280;40029;58.708;50.190;2024-02-21T07:46:51;101055.34;;;-6.84;67.90
54122;BME280;40029;58.708;50.190;2024-02-21T07:49:43;101057.56;;;-6.55;67.47
54122;BME280;40029;58.708;50.190;2024-02-21T07:52:15;101055.19;;;-6.33;66.44
54122;BME280;40029;58.708;50.190;2024-02-21T07:54:46;101056.81;;;-6.35;66.74
54122;BME280;40029;58.708;50.190;2024-02-21T07:57:17;101052.25;;;-6.03;66.29
54122;BME280;40029;58.708;50.190;2024-02-21T07:59:49;101049.25;;;-6.12;65.26
54122;BME280;40029;58.708;50.190;2024-02-21T08:02:20;101059.00;;;-6.07;65.45
54122;BME280;40029;58.708;50.190;2024-02-21T08:04:51;101055.75;;;-6.21;64.87
54122;BME280;40029;58.708;50.190;2024-02-21T08:07:22;101054.75;;;-5.85;64.75
54122;BME280;40029;58.708;50.190;2024-02-21T08:09:53;101049.56;;;-6.06;63.86
54122;BME280;40029;58.708;50.190;2024-02-21T08:12:24;101055.13;;;-5.97;64.03
54122;BME280;40029;58.708;50.190;2024-02-21T08:15:14;101057.06;;;-5.72;63.46
54122;BME280;40029;58.708;50.190;2024-02-21T08:17:46;101057.28;;;-5.67;63.87
54122;BME280;40029;58.708;50.190;2024-02-21T08:20:36;101052.63;;;-5.35;63.28
54122;BME280;40029;58.708;50.190;2024-02-21T08:23:07;101048.97;;;-5.40;62.71
54122;BME280;40029;58.708;50.190;2024-02-21T08:25:57;101054.03;;;-5.83;61.93
54122;BME280;40029;58.708;50.190;2024-02-21T08:28:28;101057.84;;;-5.55;63.10
54122;BME280;40029;58.708;50.190;2024-02-21T08:30:59;101063.63;;;-5.20;62.97
54122;BME280;40029;58.708;50.190;2024-02-21T08:33:30;101058.75;;;-5.33;62.26
54122;BME280;40029;58.708;50.190;2024-02-21T08:36:02;101065.63;;;-5.13;61.42
54122;BME280;40029;58.708;50.190;2024-02-21T08:38:34;101066.06;;;-5.23;62.30
54122;BME280;40029;58.708;50.190;2024-02-21T08:41:05;101063.75;;;-5.17;62.48
54122;BME280;40029;58.708;50.190;2024-02-21T08:43:36;101062.00;;;-5.18;61.92
54122;BME280;40029;58.708;50.190;2024-02-21T08:46:07;101067.69;;;-5.25;61.32
54122;BME280;40029;58.708;50.190;2024-02-21T08:48:38;101069.66;;;-5.19;60.77
54122;BME280;40029;58.708;50.190;2024-02-21T08:51:28;101064.97;;;-5.28;60.97
54122;BME280;40029;58.708;50.190;2024-02-21T08:54:00;101064.13;;;-5.48;61.45
54122;BME280;40029;58.708;50.190;2024-02-21T08:56:50;101063.78;;;-5.56;62.82
54122;BME280;40029;58.708;50.190;2024-02-21T08:59:21;101058.66;;;-5.35;62.76
54122;BME280;40029;58.708;50.190;2024-02-21T09:01:52;101063.75;;;-5.17;63.31
54122;BME280;40029;58.708;50.190;2024-02-21T09:04:23;101057.88;;;-5.53;63.84
54122;BME280;40029;58.708;50.190;2024-02-21T09:07:13;101055.50;;;-5.49;64.63
54122;BME280;40029;58.708;50.190;2024-02-21T09:09:44;101050.59;;;-5.43;63.20
54122;BME280;40029;58.708;50.190;2024-02-21T09:12:15;101053.22;;;-5.62;63.38
54122;BME280;40029;58.708;50.190;2024-02-21T09:14:46;101053.88;;;-5.86;64.29
54122;BME280;40029;58.708;50.190;2024-02-21T09:17:20;101051.66;;;-5.78;64.51
54122;BME280;40029;58.708;50.190;2024-02-21T09:19:56;101056.88;;;-5.76;64.15
54122;BME280;40029;58.708;50.190;2024-02-21T09:22:30;101057.75;;;-5.56;63.62
54122;BME280;40029;58.708;50.190;2024-02-21T09:25:02;101055.44;;;-5.50;62.98
54122;BME280;40029;58.708;50.190;2024-02-21T09:27:54;101056.53;;;-5.45;63.15
54122;BME280;40029;58.708;50.190;2024-02-21T09:30:25;101054.44;;;-5.13;63.03
54122;BME280;40029;58.708;50.190;2024-02-21T09:32:56;101058.19;;;-5.26;63.54
54122;BME280;40029;58.708;50.190;2024-02-21T09:35:30;101061.31;;;-5.33;63.16
54122;BME280;40029;58.708;50.190;2024-02-21T09:38:04;101059.19;;;-5.44;62.68
54122;BME280;40029;58.708;50.190;2024-02-21T09:40:35;101060.53;;;-5.52;63.24
54122;BME280;40029;58.708;50.190;2024-02-21T09:43:29;101056.78;;;-5.19;63.02
54122;BME280;40029;58.708;50.190;2024-02-21T09:46:00;101058.09;;;-5.29;62.12
54122;BME280;40029;58.708;50.190;2024-02-21T09:51:36;101056.84;;;-5.18;62.93
54122;BME280;40029;58.708;50.190;2024-02-21T09:54:09;101064.41;;;-5.01;63.56
54122;BME280;40029;58.708;50.190;2024-02-21T09:57:02;101061.63;;;-5.06;63.41
54122;BME280;40029;58.708;50.190;2024-02-21T09:59:33;101055.75;;;-5.23;63.24
54122;BME280;40029;58.708;50.190;2024-02-21T10:02:05;101050.84;;;-5.17;63.50
54122;BME280;40029;58.708;50.190;2024-02-21T10:04:37;101058.50;;;-5.18;63.41
54122;BME280;40029;58.708;50.190;2024-02-21T10:07:10;101047.41;;;-5.17;64.10
54122;BME280;40029;58.708;50.190;2024-02-21T10:09:42;101055.03;;;-4.99;62.89
54122;BME280;40029;58.708;50.190;2024-02-21T10:12:16;101045.34;;;-4.84;62.88
54122;BME280;40029;58.708;50.190;2024-02-21T10:15:00;101057.63;;;-4.99;63.41
54122;BME280;40029;58.708;50.190;2024-02-21T10:17:34;101053.47;;;-4.96;62.51
54122;BME280;40029;58.708;50.190;2024-02-21T10:20:10;101064.91;;;-5.10;62.54
54122;BME280;40029;58.708;50.190;2024-02-21T10:23:01;101061.38;;;-5.12;63.26
54122;BME280;40029;58.708;50.190;2024-02-21T10:25:39;101061.38;;;-4.91;63.32
54122;BME280;40029;58.708;50.190;2024-02-21T10:28:14;101062.78;;;-4.99;63.17
54122;BME280;40029;58.708;50.190;2024-02-21T10:30:51;101060.28;;;-5.17;63.76
54122;BME280;40029;58.708;50.190;2024-02-21T10:33:23;101065.53;;;-4.95;63.80
54122;BME280;40029;58.708;50.190;2024-02-21T10:36:08;101061.25;;;-4.94;63.45
54122;BME280;40029;58.708;50.190;2024-02-21T10:38:40;101056.66;;;-5.01;64.27
54122;BME280;40029;58.708;50.190;2024-02-21T10:41:14;101059.13;;;-5.24;64.24
54122;BME280;40029;58.708;50.190;2024-02-21T10:43:49;101050.91;;;-5.15;64.03
54122;BME280;40029;58.708;50.190;2024-02-21T10:46:24;101062.22;;;-5.33;64.77
54122;BME280;40029;58.708;50.190;2024-02-21T10:49:03;101053.19;;;-5.43;64.82
54122;BME280;40029;58.708;50.190;2024-02-21T10:51:42;101055.50;;;-5.68;65.58
54122;BME280;40029;58.708;50.190;2024-02-21T10:55:07;101051.38;;;-5.45;65.24
54122;BME280;40029;58.708;50.190;2024-02-21T10:57:19;101050.97;;;-5.54;65.30
54122;BME280;40029;58.708;50.190;2024-02-21T11:00:10;101048.19;;;-5.59;64.47
54122;BME280;40029;58.708;50.190;2024-02-21T11:02:44;101052.00;;;-5.51;64.65
54122;BME280;40029;58.708;50.190;2024-02-21T11:05:16;101054.00;;;-5.63;64.55
54122;BME280;40029;58.708;50.190;2024-02-21T11:07:47;101048.06;;;-5.62;64.76
54122;BME280;40029;58.708;50.190;2024-02-21T11:10:23;101047.91;;;-5.65;64.35
54122;BME280;40029;58.708;50.190;2024-02-21T11:13:13;101046.72;;;-5.73;64.22
54122;BME280;40029;58.708;50.190;2024-02-21T11:15:45;101039.94;;;-5.71;64.59
54122;BME280;40029;58.708;50.190;2024-02-21T11:18:24;101040.66;;;-5.74;64.44
54122;BME280;40029;58.708;50.190;2024-02-21T11:20:56;101037.53;;;-5.67;64.51
54122;BME280;40029;58.708;50.190;2024-02-21T11:23:27;101036.94;;;-5.80;64.56
54122;BME280;40029;58.708;50.190;2024-02-21T11:26:27;101039.38;;;-5.64;64.23
54122;BME280;40029;58.708;50.190;2024-02-21T11:29:00;101038.63;;;-5.62;64.68
54122;BME280;40029;58.708;50.190;2024-02-21T11:31:42;101036.06;;;-5.62;64.54
54122;BME280;40029;58.708;50.190;2024-02-21T11:34:17;101041.69;;;-5.70;64.85
54122;BME280;40029;58.708;50.190;2024-02-21T11:36:51;101040.34;;;-5.62;65.41
54122;BME280;40029;58.708;50.190;2024-02-21T11:39:24;101033.41;;;-5.63;65.10
54122;BME280;40029;58.708;50.190;2024-02-21T11:42:13;101041.22;;;-5.62;64.90
54122;BME280;40029;58.708;50.190;2024-02-21T11:44:45;101043.19;;;-5.75;65.33
54122;BME280;40029;58.708;50.190;2024-02-21T11:47:17;101040.53;;;-5.96;65.30
54122;BME280;40029;58.708;50.190;2024-02-21T11:49:49;101041.81;;;-5.87;65.27
54122;BME280;40029;58.708;50.190;2024-02-21T11:52:43;101049.81;;;-6.00;64.89
54122;BME280;40029;58.708;50.190;2024-02-21T11:55:14;101052.38;;;-6.19;64.91
54122;BME280;40029;58.708;50.190;2024-02-21T11:57:47;101046.56;;;-6.15;64.99
54122;BME280;40029;58.708;50.190;2024-02-21T12:00:19;101051.31;;;-6.05;64.77
54122;BME280;40029;58.708;50.190;2024-02-21T12:02:51;101055.91;;;-6.17;64.69
54122;BME280;40029;58.708;50.190;2024-02-21T12:05:23;101055.00;;;-6.18;64.72
54122;BME280;40029;58.708;50.190;2024-02-21T12:07:54;101055.69;;;-6.22;64.06
54122;BME280;40029;58.708;50.190;2024-02-21T12:10:26;101050.78;;;-6.35;64.65
54122;BME280;40029;58.708;50.190;2024-02-21T12:13:10;101057.75;;;-6.33;64.38
54122;BME280;40029;58.708;50.190;2024-02-21T12:15:47;101054.66;;;-6.44;64.62
54122;BME280;40029;58.708;50.190;2024-02-21T12:18:20;101062.09;;;-6.50;64.65
54122;BME280;40029;58.708;50.190;2024-02-21T12:20:52;101062.09;;;-6.50;64.10
54122;BME280;40029;58.708;50.190;2024-02-21T12:23:27;101056.53;;;-6.59;64.23
54122;BME280;40029;58.708;50.190;2024-02-21T12:25:59;101054.19;;;-6.54;64.64
54122;BME280;40029;58.708;50.190;2024-02-21T12:28:30;101058.13;;;-6.61;64.29
54122;BME280;40029;58.708;50.190;2024-02-21T12:31:02;101061.81;;;-6.74;63.49
54122;BME280;40029;58.708;50.190;2024-02-21T12:33:35;101059.00;;;-6.61;63.51
54122;BME280;40029;58.708;50.190;2024-02-21T12:36:06;101057.50;;;-6.75;63.68
54122;BME280;40029;58.708;50.190;2024-02-21T12:38:39;101062.31;;;-6.81;63.72
54122;BME280;40029;58.708;50.190;2024-02-21T12:41:10;101057.56;;;-6.55;63.75
54122;BME280;40029;58.708;50.190;2024-02-21T12:43:42;101057.41;;;-6.58;63.07
54122;BME280;40029;58.708;50.190;2024-02-21T12:46:31;101069.63;;;-6.54;63.54
54122;BME280;40029;58.708;50.190;2024-02-21T12:49:04;101059.31;;;-6.54;63.21
54122;BME280;40029;58.708;50.190;2024-02-21T12:51:36;101054.31;;;-6.51;63.51
54122;BME280;40029;58.708;50.190;2024-02-21T12:54:07;101054.69;;;-6.62;63.15
54122;BME280;40029;58.708;50.190;2024-02-21T12:56:41;101063.53;;;-6.56;63.51
54122;BME280;40029;58.708;50.190;2024-02-21T12:59:13;101054.63;;;-6.45;63.20
54122;BME280;40029;58.708;50.190;2024-02-21T13:01:44;101061.38;;;-6.47;63.21
54122;BME280;40029;58.708;50.190;2024-02-21T13:04:16;101064.66;;;-6.68;62.71
54122;BME280;40029;58.708;50.190;2024-02-21T13:06:47;101065.94;;;-6.60;63.13
54122;BME280;40029;58.708;50.190;2024-02-21T13:09:18;101065.34;;;-6.54;63.35
54122;BME280;40029;58.708;50.190;2024-02-21T13:11:49;101064.75;;;-6.66;62.89
54122;BME280;40029;58.708;50.190;2024-02-21T13:14:22;101068.72;;;-6.73;63.53
54122;BME280;40029;58.708;50.190;2024-02-21T13:16:53;101071.19;;;-6.92;63.46
54122;BME280;40029;58.708;50.190;2024-02-21T13:19:26;101073.31;;;-7.02;64.02
54122;BME280;40029;58.708;50.190;2024-02-21T13:21:57;101078.53;;;-7.00;64.08
54122;BME280;40029;58.708;50.190;2024-02-21T13:24:30;101078.28;;;-7.05;64.21